Bellevue, WA (98004)

5:17 AM PST on February 13, 2016 (GMT -0800)
Bellevue - Downtown Park | | Change Station
CLOSE
Current Station
Personal Weather Station
Location: Bellevue, WA
Elevation: 100 ft
Nearby Weather Stations

Elev 100 ft 47.61 °N, 122.20 °W | Updated 9 seconds ago

Mostly Cloudy
Mostly Cloudy
45.1 °F
Feels Like 45 °F
N
1.0
Wind Variable Wind from ESE
Gusts 2.0 mph

Today
High -- | Low -- °F
--% Chance of Precip.
Yesterday
High -- | Low -- °F
Precip. -- in
Pressure 30.26 in
Visibility 10.0 miles
Clouds Few 1500 ft
Scattered Clouds 2400 ft
Windchill 45 °F
Dew Point 43 °F
Humidity 91%
Rainfall 0.09 in
Snow Depth Not available.
7:18 AM 5:28 PM
Waxing Crescent, 30% visible
METAR KBFI 131253Z 18010G19KT 10SM FEW015 SCT024 08/07 A3026 RMK AO2 SLP247 T00830072
Pressure 30.26 in
Visibility 10.0 miles
Clouds Few 1500 ft
Scattered Clouds 2400 ft
Windchill 45 °F
Dew Point 43 °F
Humidity 91%
Rainfall 0.09 in
Snow Depth Not available.
7:18 AM 5:28 PM
Waxing Crescent, 30% visible
METAR KBFI 131253Z 18010G19KT 10SM FEW015 SCT024 08/07 A3026 RMK AO2 SLP247 T00830072

10-Day Weather Forecast

Almanac

Astronomy

Feb. 13, 2016 Rise Set
Actual Time
Civil Twilight
Nautical Twilight
Astronomical Twilight
Moon
Length of Visible Light
Length of Day
Tomorrow will be .
, % of the Moon is Illuminated

Today's Extremes

State Highs State Lows

Community

WunderPhotos

Upload Photos

1,892,545 photos uploaded!

WunderBlog® & News

Nearby

Air Quality

  Air Quality AQ Index Pollutant
Not available.

Snow Depth

Station Depth Elevation

Earthquake Activity

City Distance Mag. Time & Date
Minimum magnitude displayed is 2.5.

Coastal Water Temperatures

Place Temperature

Stations

Nearby Weather Stations

Station Location Temp. Windchill Dew Point Humidity Wind Precip. Elev Updated Type
                   

Watches & Warnings

There are currently no watches in effect.